Arverne, New York
Current Conditions -  °F | °C
As of 7:51 PM on Wednesday 17 Dec 2014 (Local Time) from KJFK Reporting Station
Overcast Overcast  
Wind Chill:   Ceiling: 4600
Heat Index:   Visibility: 10mi
Dew Point:   Wind: 12mph
Humidity: 58%   Direction: 290°WNW
Pressure: 29.89"   Gusts: NA
Location:  40.59°N, 73.8°W
Report Text: KJFK 180051Z 29010KT 10SM SCT035 OVC046 09/01 A2989 RMK AO2 SLP121 T00890011
Loading
Personal Weather Stations






























Interactive Weather Map New forecast layout! Learn more

10-Day Weather Forecast

Advertisements
Track Severe Weather on mobile